sensor_id;sensor_type;location;lat;lon;timestamp;temperature;humidity
44117;DHT22;29781;49.480;8.512;2023-08-30T00:00:04;16.90;99.90
44117;DHT22;29781;49.480;8.512;2023-08-30T00:02:29;16.90;99.90
44117;DHT22;29781;49.480;8.512;2023-08-30T00:04:58;16.80;99.90
44117;DHT22;29781;49.480;8.512;2023-08-30T00:07:24;16.80;99.90
44117;DHT22;29781;49.480;8.512;2023-08-30T00:09:50;16.80;99.90
44117;DHT22;29781;49.480;8.512;2023-08-30T00:12:15;16.80;99.90
44117;DHT22;29781;49.480;8.512;2023-08-30T00:14:41;16.80;99.90
44117;DHT22;29781;49.480;8.512;2023-08-30T00:17:07;16.90;99.90
44117;DHT22;29781;49.480;8.512;2023-08-30T00:19:32;16.90;99.90
44117;DHT22;29781;49.480;8.512;2023-08-30T00:21:58;16.90;99.90
44117;DHT22;29781;49.480;8.512;2023-08-30T00:24:23;16.90;99.90
44117;DHT22;29781;49.480;8.512;2023-08-30T00:26:49;16.90;99.90
44117;DHT22;29781;49.480;8.512;2023-08-30T00:29:14;16.90;99.90
44117;DHT22;29781;49.480;8.512;2023-08-30T00:31:40;16.80;99.90
44117;DHT22;29781;49.480;8.512;2023-08-30T00:34:05;16.70;99.90
44117;DHT22;29781;49.480;8.512;2023-08-30T00:36:31;16.80;99.90
44117;DHT22;29781;49.480;8.512;2023-08-30T00:38:56;16.80;99.90
44117;DHT22;29781;49.480;8.512;2023-08-30T00:41:22;16.80;99.90
44117;DHT22;29781;49.480;8.512;2023-08-30T00:43:47;16.80;99.90
44117;DHT22;29781;49.480;8.512;2023-08-30T00:46:14;16.80;99.90
44117;DHT22;29781;49.480;8.512;2023-08-30T00:48:40;16.80;99.90
44117;DHT22;29781;49.480;8.512;2023-08-30T00:51:06;16.80;99.90
44117;DHT22;29781;49.480;8.512;2023-08-30T00:53:32;16.90;99.90
44117;DHT22;29781;49.480;8.512;2023-08-30T00:55:57;16.80;99.90
44117;DHT22;29781;49.480;8.512;2023-08-30T00:58:23;16.80;99.90
44117;DHT22;29781;49.480;8.512;2023-08-30T01:00:52;16.70;99.90
44117;DHT22;29781;49.480;8.512;2023-08-30T01:03:18;16.70;99.90
44117;DHT22;29781;49.480;8.512;2023-08-30T01:05:44;16.70;99.90
44117;DHT22;29781;49.480;8.512;2023-08-30T01:08:09;16.70;99.90
44117;DHT22;29781;49.480;8.512;2023-08-30T01:13:22;16.60;99.90
44117;DHT22;29781;49.480;8.512;2023-08-30T01:15:48;16.60;99.90
44117;DHT22;29781;49.480;8.512;2023-08-30T01:18:22;16.60;99.90
44117;DHT22;29781;49.480;8.512;2023-08-30T01:20:50;16.50;99.90
44117;DHT22;29781;49.480;8.512;2023-08-30T01:23:35;16.50;99.90
44117;DHT22;29781;49.480;8.512;2023-08-30T01:28:35;16.40;99.90
44117;DHT22;29781;49.480;8.512;2023-08-30T01:31:03;16.50;99.90
44117;DHT22;29781;49.480;8.512;2023-08-30T01:33:29;16.50;99.90
44117;DHT22;29781;49.480;8.512;2023-08-30T01:35:58;16.50;99.90
44117;DHT22;29781;49.480;8.512;2023-08-30T01:38:26;16.50;99.90
44117;DHT22;29781;49.480;8.512;2023-08-30T01:40:52;16.50;99.90
44117;DHT22;29781;49.480;8.512;2023-08-30T01:43:19;16.50;99.90
44117;DHT22;29781;49.480;8.512;2023-08-30T01:45:47;16.50;99.90
44117;DHT22;29781;49.480;8.512;2023-08-30T01:48:14;16.50;99.90
44117;DHT22;29781;49.480;8.512;2023-08-30T01:50:41;16.40;99.90
44117;DHT22;29781;49.480;8.512;2023-08-30T01:53:08;16.40;99.90
44117;DHT22;29781;49.480;8.512;2023-08-30T01:55:35;16.30;99.90
44117;DHT22;29781;49.480;8.512;2023-08-30T01:58:01;16.40;99.90
44117;DHT22;29781;49.480;8.512;2023-08-30T02:00:26;16.30;99.90
44117;DHT22;29781;49.480;8.512;2023-08-30T02:02:52;16.30;99.90
44117;DHT22;29781;49.480;8.512;2023-08-30T02:05:17;16.30;99.90
44117;DHT22;29781;49.480;8.512;2023-08-30T02:07:57;16.30;99.90
44117;DHT22;29781;49.480;8.512;2023-08-30T02:10:33;16.30;99.90
44117;DHT22;29781;49.480;8.512;2023-08-30T02:13:00;16.30;99.90
44117;DHT22;29781;49.480;8.512;2023-08-30T02:15:27;16.30;99.90
44117;DHT22;29781;49.480;8.512;2023-08-30T02:17:53;16.30;99.90
44117;DHT22;29781;49.480;8.512;2023-08-30T02:20:19;16.30;99.90
44117;DHT22;29781;49.480;8.512;2023-08-30T02:22:44;16.30;99.90
44117;DHT22;29781;49.480;8.512;2023-08-30T02:25:10;16.30;99.90
44117;DHT22;29781;49.480;8.512;2023-08-30T02:27:35;16.20;99.90
44117;DHT22;29781;49.480;8.512;2023-08-30T02:30:01;16.30;99.90
44117;DHT22;29781;49.480;8.512;2023-08-30T02:32:28;16.20;99.90
44117;DHT22;29781;49.480;8.512;2023-08-30T02:34:54;16.10;99.90
44117;DHT22;29781;49.480;8.512;2023-08-30T02:37:19;16.20;99.90
44117;DHT22;29781;49.480;8.512;2023-08-30T02:39:45;16.20;99.90
44117;DHT22;29781;49.480;8.512;2023-08-30T02:42:11;16.30;99.90
44117;DHT22;29781;49.480;8.512;2023-08-30T02:44:36;16.30;99.90
44117;DHT22;29781;49.480;8.512;2023-08-30T02:47:02;16.20;99.90
44117;DHT22;29781;49.480;8.512;2023-08-30T02:49:27;16.30;99.90
44117;DHT22;29781;49.480;8.512;2023-08-30T02:51:53;16.30;99.90
44117;DHT22;29781;49.480;8.512;2023-08-30T02:54:19;16.30;99.90
44117;DHT22;29781;49.480;8.512;2023-08-30T02:56:48;16.20;99.90
44117;DHT22;29781;49.480;8.512;2023-08-30T02:59:14;16.20;99.90
44117;DHT22;29781;49.480;8.512;2023-08-30T03:01:40;16.20;99.90
44117;DHT22;29781;49.480;8.512;2023-08-30T03:04:06;16.20;99.90
44117;DHT22;29781;49.480;8.512;2023-08-30T03:06:35;16.20;99.90
44117;DHT22;29781;49.480;8.512;2023-08-30T03:09:02;16.10;99.90
44117;DHT22;29781;49.480;8.512;2023-08-30T03:11:32;16.20;99.90
44117;DHT22;29781;49.480;8.512;2023-08-30T03:13:57;16.20;99.90
44117;DHT22;29781;49.480;8.512;2023-08-30T03:16:23;16.20;99.90
44117;DHT22;29781;49.480;8.512;2023-08-30T03:18:49;16.20;99.90
44117;DHT22;29781;49.480;8.512;2023-08-30T03:21:15;16.20;99.90
44117;DHT22;29781;49.480;8.512;2023-08-30T03:23:41;16.20;99.90
44117;DHT22;29781;49.480;8.512;2023-08-30T03:26:13;16.20;99.90
44117;DHT22;29781;49.480;8.512;2023-08-30T03:28:42;16.20;99.90
44117;DHT22;29781;49.480;8.512;2023-08-30T03:33:37;16.30;99.90
44117;DHT22;29781;49.480;8.512;2023-08-30T03:36:03;16.20;99.90
44117;DHT22;29781;49.480;8.512;2023-08-30T03:38:28;16.20;99.90
44117;DHT22;29781;49.480;8.512;2023-08-30T03:40:54;16.20;99.90
44117;DHT22;29781;49.480;8.512;2023-08-30T03:43:19;16.30;99.90
44117;DHT22;29781;49.480;8.512;2023-08-30T03:45:46;16.20;99.90
44117;DHT22;29781;49.480;8.512;2023-08-30T03:48:11;16.30;99.90
44117;DHT22;29781;49.480;8.512;2023-08-30T03:50:37;16.20;99.90
44117;DHT22;29781;49.480;8.512;2023-08-30T03:53:02;16.20;99.90
44117;DHT22;29781;49.480;8.512;2023-08-30T03:55:28;16.20;99.90
44117;DHT22;29781;49.480;8.512;2023-08-30T03:57:53;16.10;99.90
44117;DHT22;29781;49.480;8.512;2023-08-30T04:00:19;16.10;99.90
44117;DHT22;29781;49.480;8.512;2023-08-30T04:02:44;16.10;99.90
44117;DHT22;29781;49.480;8.512;2023-08-30T04:05:10;16.10;99.90
44117;DHT22;29781;49.480;8.512;2023-08-30T04:07:36;16.00;99.90
44117;DHT22;29781;49.480;8.512;2023-08-30T04:10:02;16.00;99.90
44117;DHT22;29781;49.480;8.512;2023-08-30T04:12:31;16.00;99.90
44117;DHT22;29781;49.480;8.512;2023-08-30T04:14:56;16.00;99.90
44117;DHT22;29781;49.480;8.512;2023-08-30T04:17:22;16.00;99.90
44117;DHT22;29781;49.480;8.512;2023-08-30T04:19:47;16.00;99.90
44117;DHT22;29781;49.480;8.512;2023-08-30T04:22:16;16.00;99.90
44117;DHT22;29781;49.480;8.512;2023-08-30T04:24:41;16.00;99.90
44117;DHT22;29781;49.480;8.512;2023-08-30T04:27:07;16.00;99.90
44117;DHT22;29781;49.480;8.512;2023-08-30T04:29:32;16.00;99.90
44117;DHT22;29781;49.480;8.512;2023-08-30T04:31:58;16.00;99.90
44117;DHT22;29781;49.480;8.512;2023-08-30T04:34:23;16.10;99.90
44117;DHT22;29781;49.480;8.512;2023-08-30T04:36:49;16.00;99.90
44117;DHT22;29781;49.480;8.512;2023-08-30T04:39:14;16.00;99.90
44117;DHT22;29781;49.480;8.512;2023-08-30T04:41:40;16.00;99.90
44117;DHT22;29781;49.480;8.512;2023-08-30T04:44:05;16.00;99.90
44117;DHT22;29781;49.480;8.512;2023-08-30T04:46:31;16.00;99.90
44117;DHT22;29781;49.480;8.512;2023-08-30T04:48:56;16.00;99.90
44117;DHT22;29781;49.480;8.512;2023-08-30T04:51:22;16.10;99.90
44117;DHT22;29781;49.480;8.512;2023-08-30T04:53:47;16.00;99.90
44117;DHT22;29781;49.480;8.512;2023-08-30T04:56:13;16.00;99.90
44117;DHT22;29781;49.480;8.512;2023-08-30T04:58:40;16.10;99.90
44117;DHT22;29781;49.480;8.512;2023-08-30T05:01:05;16.00;99.90
44117;DHT22;29781;49.480;8.512;2023-08-30T05:03:32;16.10;99.90
44117;DHT22;29781;49.480;8.512;2023-08-30T05:05:58;16.10;99.90
44117;DHT22;29781;49.480;8.512;2023-08-30T05:08:23;16.10;99.90
44117;DHT22;29781;49.480;8.512;2023-08-30T05:10:48;16.10;99.90
44117;DHT22;29781;49.480;8.512;2023-08-30T05:13:16;16.10;99.90
44117;DHT22;29781;49.480;8.512;2023-08-30T05:15:42;16.10;99.90
44117;DHT22;29781;49.480;8.512;2023-08-30T05:18:07;16.00;99.90
44117;DHT22;29781;49.480;8.512;2023-08-30T05:20:33;16.10;99.90
44117;DHT22;29781;49.480;8.512;2023-08-30T05:22:58;16.00;99.90
44117;DHT22;29781;49.480;8.512;2023-08-30T05:25:24;15.90;99.90
44117;DHT22;29781;49.480;8.512;2023-08-30T05:27:50;15.90;99.90
44117;DHT22;29781;49.480;8.512;2023-08-30T05:30:15;15.90;99.90
44117;DHT22;29781;49.480;8.512;2023-08-30T05:32:41;15.90;99.90
44117;DHT22;29781;49.480;8.512;2023-08-30T05:35:07;15.90;99.90
44117;DHT22;29781;49.480;8.512;2023-08-30T05:37:33;15.90;99.90
44117;DHT22;29781;49.480;8.512;2023-08-30T05:39:58;15.90;99.90
44117;DHT22;29781;49.480;8.512;2023-08-30T05:42:24;15.90;99.90
44117;DHT22;29781;49.480;8.512;2023-08-30T05:44:49;16.00;99.90
44117;DHT22;29781;49.480;8.512;2023-08-30T05:47:15;16.00;99.90
44117;DHT22;29781;49.480;8.512;2023-08-30T05:49:42;15.90;99.90
44117;DHT22;29781;49.480;8.512;2023-08-30T05:52:07;15.90;99.90
44117;DHT22;29781;49.480;8.512;2023-08-30T05:54:33;16.00;99.90
44117;DHT22;29781;49.480;8.512;2023-08-30T05:56:59;16.00;99.90
44117;DHT22;29781;49.480;8.512;2023-08-30T05:59:25;16.00;99.90
44117;DHT22;29781;49.480;8.512;2023-08-30T06:01:50;16.00;99.90
44117;DHT22;29781;49.480;8.512;2023-08-30T06:04:16;16.00;99.90
44117;DHT22;29781;49.480;8.512;2023-08-30T06:06:41;16.10;99.90
44117;DHT22;29781;49.480;8.512;2023-08-30T06:09:07;16.10;99.90
44117;DHT22;29781;49.480;8.512;2023-08-30T06:11:33;16.10;99.90
44117;DHT22;29781;49.480;8.512;2023-08-30T06:13:58;16.30;99.90
44117;DHT22;29781;49.480;8.512;2023-08-30T06:16:27;16.40;99.90
44117;DHT22;29781;49.480;8.512;2023-08-30T06:18:52;16.30;99.90
44117;DHT22;29781;49.480;8.512;2023-08-30T06:21:18;16.40;99.90
44117;DHT22;29781;49.480;8.512;2023-08-30T06:23:43;16.40;99.90
44117;DHT22;29781;49.480;8.512;2023-08-30T06:26:09;16.40;99.90
44117;DHT22;29781;49.480;8.512;2023-08-30T06:28:34;16.30;99.90
44117;DHT22;29781;49.480;8.512;2023-08-30T06:31:00;16.40;99.90
44117;DHT22;29781;49.480;8.512;2023-08-30T06:33:25;16.40;99.90
44117;DHT22;29781;49.480;8.512;2023-08-30T06:35:51;16.40;99.90
44117;DHT22;29781;49.480;8.512;2023-08-30T06:38:18;16.30;99.90
44117;DHT22;29781;49.480;8.512;2023-08-30T06:40:45;16.40;99.90
44117;DHT22;29781;49.480;8.512;2023-08-30T06:43:10;16.50;99.90
44117;DHT22;29781;49.480;8.512;2023-08-30T06:45:38;16.60;99.90
44117;DHT22;29781;49.480;8.512;2023-08-30T06:48:04;16.60;99.90
44117;DHT22;29781;49.480;8.512;2023-08-30T06:50:30;16.60;99.90
44117;DHT22;29781;49.480;8.512;2023-08-30T06:52:56;16.60;99.90
44117;DHT22;29781;49.480;8.512;2023-08-30T06:55:21;16.70;99.90
44117;DHT22;29781;49.480;8.512;2023-08-30T06:57:48;16.70;99.90
44117;DHT22;29781;49.480;8.512;2023-08-30T07:00:14;16.70;99.90
44117;DHT22;29781;49.480;8.512;2023-08-30T07:02:40;16.70;99.90
44117;DHT22;29781;49.480;8.512;2023-08-30T07:05:06;16.70;99.90
44117;DHT22;29781;49.480;8.512;2023-08-30T07:07:32;16.80;99.90
44117;DHT22;29781;49.480;8.512;2023-08-30T07:09:57;16.80;99.90
44117;DHT22;29781;49.480;8.512;2023-08-30T07:12:23;16.90;99.90
44117;DHT22;29781;49.480;8.512;2023-08-30T07:14:48;16.90;99.90
44117;DHT22;29781;49.480;8.512;2023-08-30T07:17:14;16.90;99.90
44117;DHT22;29781;49.480;8.512;2023-08-30T07:19:39;16.90;99.90
44117;DHT22;29781;49.480;8.512;2023-08-30T07:22:05;17.00;99.90
44117;DHT22;29781;49.480;8.512;2023-08-30T07:24:31;17.10;99.90
44117;DHT22;29781;49.480;8.512;2023-08-30T07:26:57;17.20;99.90
44117;DHT22;29781;49.480;8.512;2023-08-30T07:29:22;17.20;99.90
44117;DHT22;29781;49.480;8.512;2023-08-30T07:31:48;17.30;99.90
44117;DHT22;29781;49.480;8.512;2023-08-30T07:34:16;17.40;99.90
44117;DHT22;29781;49.480;8.512;2023-08-30T07:36:42;17.40;99.90
44117;DHT22;29781;49.480;8.512;2023-08-30T07:39:07;17.50;99.90
44117;DHT22;29781;49.480;8.512;2023-08-30T07:41:34;17.50;99.90
44117;DHT22;29781;49.480;8.512;2023-08-30T07:43:59;17.60;99.90
44117;DHT22;29781;49.480;8.512;2023-08-30T07:46:25;17.50;99.90
44117;DHT22;29781;49.480;8.512;2023-08-30T07:48:51;17.60;99.90
44117;DHT22;29781;49.480;8.512;2023-08-30T07:51:17;17.60;99.90
44117;DHT22;29781;49.480;8.512;2023-08-30T07:53:42;17.70;99.90
44117;DHT22;29781;49.480;8.512;2023-08-30T07:56:08;17.70;99.90
44117;DHT22;29781;49.480;8.512;2023-08-30T07:58:33;17.70;99.90
44117;DHT22;29781;49.480;8.512;2023-08-30T08:00:59;17.80;99.90
44117;DHT22;29781;49.480;8.512;2023-08-30T08:03:25;17.70;99.90
44117;DHT22;29781;49.480;8.512;2023-08-30T08:05:51;17.90;99.90
44117;DHT22;29781;49.480;8.512;2023-08-30T08:08:20;17.90;99.90
44117;DHT22;29781;49.480;8.512;2023-08-30T08:10:45;18.00;99.90
44117;DHT22;29781;49.480;8.512;2023-08-30T08:13:11;18.20;99.90
44117;DHT22;29781;49.480;8.512;2023-08-30T08:15:38;18.10;99.90
44117;DHT22;29781;49.480;8.512;2023-08-30T08:18:03;18.20;99.90
44117;DHT22;29781;49.480;8.512;2023-08-30T08:20:30;18.20;99.90
44117;DHT22;29781;49.480;8.512;2023-08-30T08:22:56;18.10;99.90
44117;DHT22;29781;49.480;8.512;2023-08-30T08:25:21;18.20;99.90
44117;DHT22;29781;49.480;8.512;2023-08-30T08:27:49;18.20;99.90
44117;DHT22;29781;49.480;8.512;2023-08-30T08:30:16;18.10;99.90
44117;DHT22;29781;49.480;8.512;2023-08-30T08:32:41;17.90;99.90
44117;DHT22;29781;49.480;8.512;2023-08-30T08:35:07;17.90;99.90
44117;DHT22;29781;49.480;8.512;2023-08-30T08:37:33;18.20;99.90
44117;DHT22;29781;49.480;8.512;2023-08-30T08:39:59;18.50;99.90
44117;DHT22;29781;49.480;8.512;2023-08-30T08:42:24;18.70;99.90
44117;DHT22;29781;49.480;8.512;2023-08-30T08:44:54;19.00;99.90
44117;DHT22;29781;49.480;8.512;2023-08-30T08:47:20;19.30;99.90
44117;DHT22;29781;49.480;8.512;2023-08-30T08:49:50;19.50;99.90
44117;DHT22;29781;49.480;8.512;2023-08-30T08:52:16;19.50;99.90
44117;DHT22;29781;49.480;8.512;2023-08-30T08:54:43;19.40;99.90
44117;DHT22;29781;49.480;8.512;2023-08-30T08:57:09;19.30;99.90
44117;DHT22;29781;49.480;8.512;2023-08-30T08:59:34;19.20;99.90
44117;DHT22;29781;49.480;8.512;2023-08-30T09:02:01;19.30;99.90
44117;DHT22;29781;49.480;8.512;2023-08-30T09:04:26;19.30;99.90
44117;DHT22;29781;49.480;8.512;2023-08-30T09:06:55;19.20;99.90
44117;DHT22;29781;49.480;8.512;2023-08-30T09:09:20;19.20;99.90
44117;DHT22;29781;49.480;8.512;2023-08-30T09:11:47;19.10;99.90
44117;DHT22;29781;49.480;8.512;2023-08-30T09:14:13;18.80;99.90
44117;DHT22;29781;49.480;8.512;2023-08-30T09:16:38;18.90;99.90
44117;DHT22;29781;49.480;8.512;2023-08-30T09:19:04;19.00;99.90
44117;DHT22;29781;49.480;8.512;2023-08-30T09:21:31;18.90;99.90
44117;DHT22;29781;49.480;8.512;2023-08-30T09:24:06;18.90;99.90
44117;DHT22;29781;49.480;8.512;2023-08-30T09:26:33;19.00;99.90
44117;DHT22;29781;49.480;8.512;2023-08-30T09:29:04;19.30;99.90
44117;DHT22;29781;49.480;8.512;2023-08-30T09:31:37;19.40;99.90
44117;DHT22;29781;49.480;8.512;2023-08-30T09:34:06;19.40;99.90
44117;DHT22;29781;49.480;8.512;2023-08-30T09:36:35;19.50;99.90
44117;DHT22;29781;49.480;8.512;2023-08-30T09:39:18;19.60;99.90
44117;DHT22;29781;49.480;8.512;2023-08-30T09:41:46;19.70;99.90
44117;DHT22;29781;49.480;8.512;2023-08-30T09:44:16;19.70;99.90
44117;DHT22;29781;49.480;8.512;2023-08-30T09:46:45;19.70;99.90
44117;DHT22;29781;49.480;8.512;2023-08-30T09:49:11;19.70;99.90
44117;DHT22;29781;49.480;8.512;2023-08-30T09:51:39;19.70;99.90
44117;DHT22;29781;49.480;8.512;2023-08-30T09:54:17;19.80;99.90
44117;DHT22;29781;49.480;8.512;2023-08-30T09:56:44;19.90;99.90
44117;DHT22;29781;49.480;8.512;2023-08-30T09:59:12;19.90;99.90
44117;DHT22;29781;49.480;8.512;2023-08-30T10:01:39;19.90;99.90
44117;DHT22;29781;49.480;8.512;2023-08-30T10:04:07;19.80;99.90
44117;DHT22;29781;49.480;8.512;2023-08-30T10:06:38;19.90;99.90
44117;DHT22;29781;49.480;8.512;2023-08-30T10:09:05;19.80;99.90
44117;DHT22;29781;49.480;8.512;2023-08-30T10:11:38;19.90;99.90
44117;DHT22;29781;49.480;8.512;2023-08-30T10:14:04;20.00;99.90
44117;DHT22;29781;49.480;8.512;2023-08-30T10:16:51;19.80;99.90
44117;DHT22;29781;49.480;8.512;2023-08-30T10:19:24;19.90;99.90
44117;DHT22;29781;49.480;8.512;2023-08-30T10:22:03;20.00;99.90
44117;DHT22;29781;49.480;8.512;2023-08-30T10:25:05;20.00;99.90
44117;DHT22;29781;49.480;8.512;2023-08-30T10:27:24;20.00;99.90
44117;DHT22;29781;49.480;8.512;2023-08-30T10:29:51;20.30;99.90
44117;DHT22;29781;49.480;8.512;2023-08-30T10:32:20;20.20;99.90
44117;DHT22;29781;49.480;8.512;2023-08-30T10:34:50;20.40;99.90
44117;DHT22;29781;49.480;8.512;2023-08-30T10:37:16;20.40;99.90
44117;DHT22;29781;49.480;8.512;2023-08-30T10:39:42;20.20;99.90
44117;DHT22;29781;49.480;8.512;2023-08-30T10:42:09;20.20;99.90
44117;DHT22;29781;49.480;8.512;2023-08-30T10:44:56;20.30;99.90
44117;DHT22;29781;49.480;8.512;2023-08-30T10:47:26;20.50;99.90
44117;DHT22;29781;49.480;8.512;2023-08-30T10:49:54;20.50;99.90
44117;DHT22;29781;49.480;8.512;2023-08-30T10:52:21;20.40;99.90
44117;DHT22;29781;49.480;8.512;2023-08-30T10:54:47;20.40;99.90
44117;DHT22;29781;49.480;8.512;2023-08-30T10:57:20;20.20;99.90
44117;DHT22;29781;49.480;8.512;2023-08-30T11:00:05;20.40;99.90
44117;DHT22;29781;49.480;8.512;2023-08-30T11:02:32;20.60;99.90
44117;DHT22;29781;49.480;8.512;2023-08-30T11:04:59;20.60;99.90
44117;DHT22;29781;49.480;8.512;2023-08-30T11:07:27;20.60;99.90
44117;DHT22;29781;49.480;8.512;2023-08-30T11:09:53;20.60;99.90
44117;DHT22;29781;49.480;8.512;2023-08-30T11:12:19;20.70;99.90
44117;DHT22;29781;49.480;8.512;2023-08-30T11:14:48;20.70;99.90
44117;DHT22;29781;49.480;8.512;2023-08-30T11:17:16;21.00;99.90
44117;DHT22;29781;49.480;8.512;2023-08-30T11:19:42;21.00;99.90
44117;DHT22;29781;49.480;8.512;2023-08-30T11:22:08;21.00;99.90
44117;DHT22;29781;49.480;8.512;2023-08-30T11:24:34;21.20;99.90
44117;DHT22;29781;49.480;8.512;2023-08-30T11:27:00;21.00;99.90
44117;DHT22;29781;49.480;8.512;2023-08-30T11:29:27;21.00;99.90
44117;DHT22;29781;49.480;8.512;2023-08-30T11:31:52;21.10;99.90
44117;DHT22;29781;49.480;8.512;2023-08-30T11:34:21;21.00;99.90
44117;DHT22;29781;49.480;8.512;2023-08-30T11:36:50;21.00;99.90
44117;DHT22;29781;49.480;8.512;2023-08-30T11:39:16;21.20;99.90
44117;DHT22;29781;49.480;8.512;2023-08-30T11:41:43;21.30;99.90
44117;DHT22;29781;49.480;8.512;2023-08-30T11:44:09;21.20;99.90
44117;DHT22;29781;49.480;8.512;2023-08-30T11:46:35;21.30;99.90
44117;DHT22;29781;49.480;8.512;2023-08-30T11:49:01;21.50;99.90
44117;DHT22;29781;49.480;8.512;2023-08-30T11:51:28;21.50;99.90
44117;DHT22;29781;49.480;8.512;2023-08-30T11:53:55;21.50;99.90
44117;DHT22;29781;49.480;8.512;2023-08-30T11:56:21;21.60;99.90
44117;DHT22;29781;49.480;8.512;2023-08-30T11:58:48;21.60;99.90
44117;DHT22;29781;49.480;8.512;2023-08-30T12:01:14;21.60;99.90
44117;DHT22;29781;49.480;8.512;2023-08-30T12:03:40;21.90;99.90
44117;DHT22;29781;49.480;8.512;2023-08-30T12:06:11;22.10;99.90
44117;DHT22;29781;49.480;8.512;2023-08-30T12:08:37;22.10;99.90
44117;DHT22;29781;49.480;8.512;2023-08-30T12:11:03;22.40;99.90
44117;DHT22;29781;49.480;8.512;2023-08-30T12:13:31;23.50;99.90
44117;DHT22;29781;49.480;8.512;2023-08-30T12:15:58;24.00;99.90
44117;DHT22;29781;49.480;8.512;2023-08-30T12:18:25;23.80;99.90
44117;DHT22;29781;49.480;8.512;2023-08-30T12:20:57;23.40;99.90
44117;DHT22;29781;49.480;8.512;2023-08-30T12:23:27;23.10;99.90
44117;DHT22;29781;49.480;8.512;2023-08-30T12:26:03;22.80;99.90
44117;DHT22;29781;49.480;8.512;2023-08-30T12:28:34;22.60;99.90
44117;DHT22;29781;49.480;8.512;2023-08-30T12:31:00;22.30;99.90
44117;DHT22;29781;49.480;8.512;2023-08-30T12:33:26;22.20;99.90
44117;DHT22;29781;49.480;8.512;2023-08-30T12:35:55;22.10;99.90
44117;DHT22;29781;49.480;8.512;2023-08-30T12:38:23;22.10;99.90
44117;DHT22;29781;49.480;8.512;2023-08-30T12:40:50;22.10;99.90
44117;DHT22;29781;49.480;8.512;2023-08-30T12:43:17;22.00;99.90
44117;DHT22;29781;49.480;8.512;2023-08-30T12:45:43;21.90;99.90
44117;DHT22;29781;49.480;8.512;2023-08-30T12:48:10;21.90;99.90
44117;DHT22;29781;49.480;8.512;2023-08-30T12:50:37;22.00;99.90
44117;DHT22;29781;49.480;8.512;2023-08-30T12:53:06;21.80;99.90
44117;DHT22;29781;49.480;8.512;2023-08-30T12:55:32;21.90;99.90
44117;DHT22;29781;49.480;8.512;2023-08-30T12:57:59;22.00;99.90
44117;DHT22;29781;49.480;8.512;2023-08-30T13:00:25;22.20;99.90
44117;DHT22;29781;49.480;8.512;2023-08-30T13:02:51;22.40;99.90
44117;DHT22;29781;49.480;8.512;2023-08-30T13:05:16;22.40;99.90
44117;DHT22;29781;49.480;8.512;2023-08-30T13:07:50;22.50;99.90
44117;DHT22;29781;49.480;8.512;2023-08-30T13:10:15;22.60;99.90
44117;DHT22;29781;49.480;8.512;2023-08-30T13:12:42;22.60;99.90
44117;DHT22;29781;49.480;8.512;2023-08-30T13:15:08;22.60;99.90
44117;DHT22;29781;49.480;8.512;2023-08-30T13:17:33;22.30;99.90
44117;DHT22;29781;49.480;8.512;2023-08-30T13:19:59;22.20;99.90
44117;DHT22;29781;49.480;8.512;2023-08-30T13:22:25;22.30;99.90
44117;DHT22;29781;49.480;8.512;2023-08-30T13:24:51;22.30;99.90
44117;DHT22;29781;49.480;8.512;2023-08-30T13:27:17;22.40;99.90
44117;DHT22;29781;49.480;8.512;2023-08-30T13:29:43;22.40;99.90
44117;DHT22;29781;49.480;8.512;2023-08-30T13:32:08;22.40;99.90
44117;DHT22;29781;49.480;8.512;2023-08-30T13:34:34;22.40;99.90
44117;DHT22;29781;49.480;8.512;2023-08-30T13:37:00;22.50;99.90
44117;DHT22;29781;49.480;8.512;2023-08-30T13:39:25;22.40;99.90
44117;DHT22;29781;49.480;8.512;2023-08-30T13:41:51;22.30;99.90
44117;DHT22;29781;49.480;8.512;2023-08-30T13:44:16;22.40;99.90
44117;DHT22;29781;49.480;8.512;2023-08-30T13:46:44;22.40;99.90
44117;DHT22;29781;49.480;8.512;2023-08-30T13:49:12;22.50;99.90
44117;DHT22;29781;49.480;8.512;2023-08-30T13:51:37;22.40;99.90
44117;DHT22;29781;49.480;8.512;2023-08-30T13:54:03;22.30;99.90
44117;DHT22;29781;49.480;8.512;2023-08-30T13:56:29;22.40;99.90
44117;DHT22;29781;49.480;8.512;2023-08-30T13:58:56;22.50;99.90
44117;DHT22;29781;49.480;8.512;2023-08-30T14:01:22;22.40;99.90
44117;DHT22;29781;49.480;8.512;2023-08-30T14:03:48;22.20;99.90
44117;DHT22;29781;49.480;8.512;2023-08-30T14:06:13;22.30;99.90
44117;DHT22;29781;49.480;8.512;2023-08-30T14:08:43;22.40;99.90
44117;DHT22;29781;49.480;8.512;2023-08-30T14:11:11;22.60;99.90
44117;DHT22;29781;49.480;8.512;2023-08-30T14:13:38;22.70;99.90
44117;DHT22;29781;49.480;8.512;2023-08-30T14:16:04;22.70;99.90
44117;DHT22;29781;49.480;8.512;2023-08-30T14:18:30;22.60;99.90
44117;DHT22;29781;49.480;8.512;2023-08-30T14:21:03;22.40;99.90
44117;DHT22;29781;49.480;8.512;2023-08-30T14:23:29;22.50;99.90
44117;DHT22;29781;49.480;8.512;2023-08-30T14:28:23;22.50;99.90
44117;DHT22;29781;49.480;8.512;2023-08-30T14:30:48;22.50;99.90
44117;DHT22;29781;49.480;8.512;2023-08-30T14:33:14;22.60;99.90
44117;DHT22;29781;49.480;8.512;2023-08-30T14:35:43;22.80;99.90
44117;DHT22;29781;49.480;8.512;2023-08-30T14:38:09;22.80;99.90
44117;DHT22;29781;49.480;8.512;2023-08-30T14:40:34;22.70;99.90
44117;DHT22;29781;49.480;8.512;2023-08-30T14:43:04;22.70;99.90
44117;DHT22;29781;49.480;8.512;2023-08-30T14:45:30;22.60;99.90
44117;DHT22;29781;49.480;8.512;2023-08-30T14:47:56;22.60;99.90
44117;DHT22;29781;49.480;8.512;2023-08-30T14:50:22;22.60;99.90
44117;DHT22;29781;49.480;8.512;2023-08-30T14:52:47;22.50;99.90
44117;DHT22;29781;49.480;8.512;2023-08-30T14:55:14;22.60;99.90
44117;DHT22;29781;49.480;8.512;2023-08-30T14:57:40;22.60;99.90
44117;DHT22;29781;49.480;8.512;2023-08-30T15:00:06;22.70;99.90
44117;DHT22;29781;49.480;8.512;2023-08-30T15:02:31;22.70;99.90
44117;DHT22;29781;49.480;8.512;2023-08-30T15:04:57;22.60;99.90
44117;DHT22;29781;49.480;8.512;2023-08-30T15:07:23;22.70;99.90
44117;DHT22;29781;49.480;8.512;2023-08-30T15:09:48;22.60;99.90
44117;DHT22;29781;49.480;8.512;2023-08-30T15:12:15;22.60;99.90
44117;DHT22;29781;49.480;8.512;2023-08-30T15:14:40;22.60;99.90
44117;DHT22;29781;49.480;8.512;2023-08-30T15:17:07;22.50;99.90
44117;DHT22;29781;49.480;8.512;2023-08-30T15:19:33;22.50;99.90
44117;DHT22;29781;49.480;8.512;2023-08-30T15:21:58;22.50;99.90
44117;DHT22;29781;49.480;8.512;2023-08-30T15:24:24;22.50;99.90
44117;DHT22;29781;49.480;8.512;2023-08-30T15:26:50;22.40;99.90
44117;DHT22;29781;49.480;8.512;2023-08-30T15:29:16;22.40;99.90
44117;DHT22;29781;49.480;8.512;2023-08-30T15:31:41;22.30;99.90
44117;DHT22;29781;49.480;8.512;2023-08-30T15:34:12;22.40;99.90
44117;DHT22;29781;49.480;8.512;2023-08-30T15:36:38;22.60;99.90